Time;durP1;ratioP1;P1;durP2;ratioP2;P2;SDS_P1;SDS_P2;PMS_P1;PMS_P2;Temp;Humidity;BMP_temperature;BMP_pressure;BME280_temperature;BME280_humidity;BME280_pressure;Samples;Min_cycle;Max_cycle;Signal;HPM_P1;HPM_P2
2024/03/27 00:02:04;;;;;;;3.90;2.20;;;11.50;99.90;;;;;;6338527;22;19994;-71
2024/03/27 00:04:30;;;;;;;4.82;2.40;;;11.50;99.90;;;;;;6338327;22;20030;-71
2024/03/27 00:06:56;;;;;;;6.95;2.35;;;11.50;99.90;;;;;;6311621;22;20010;-71
2024/03/27 00:09:22;;;;;;;4.38;2.17;;;11.60;99.90;;;;;;6339217;22;20015;-71
2024/03/27 00:11:58;;;;;;;3.72;2.10;;;11.60;99.90;;;;;;6339149;22;20002;-72
2024/03/27 00:14:24;;;;;;;9.15;3.40;;;11.50;99.90;;;;;;6338991;22;20032;-71
2024/03/27 00:28:27;;;;;;;;;;;;;;;;;;;;;
2024/03/27 00:35:01;;;;;;;3.80;1.75;;;11.50;99.90;;;;;;6178636;23;20071;-73
2024/03/27 00:41:15;;;;;;;4.10;1.58;;;11.40;99.90;;;;;;6212894;23;20058;-71
2024/03/27 00:43:41;;;;;;;4.20;1.60;;;11.50;99.90;;;;;;6212362;23;20442;-70
2024/03/27 00:46:08;;;;;;;4.03;1.50;;;11.40;99.90;;;;;;6285888;22;20354;-69
2024/03/27 00:48:34;;;;;;;3.65;1.80;;;11.40;99.90;;;;;;6307153;22;20341;-71
2024/03/27 00:51:00;;;;;;;5.45;1.65;;;11.40;99.90;;;;;;6307194;22;19999;-70
2024/03/27 00:53:26;;;;;;;4.80;2.40;;;11.40;99.90;;;;;;6307033;22;20007;-70
2024/03/27 00:55:56;;;;;;;2.95;1.67;;;11.40;99.90;;;;;;6306947;22;20340;-70
2024/03/27 00:58:22;;;;;;;4.18;1.58;;;11.40;99.90;;;;;;6306729;22;20475;-71
2024/03/27 01:00:48;;;;;;;5.10;1.98;;;11.40;99.90;;;;;;6306839;22;20000;-70
2024/03/27 01:03:15;;;;;;;3.90;1.60;;;11.50;99.90;;;;;;6306697;22;20006;-73
2024/03/27 01:05:41;;;;;;;5.53;1.95;;;11.50;99.90;;;;;;6306500;22;20023;-72
2024/03/27 01:08:07;;;;;;;2.58;1.70;;;11.50;99.90;;;;;;6306278;22;20498;-71
2024/03/27 01:10:34;;;;;;;3.92;1.77;;;11.50;99.90;;;;;;6306596;22;20547;-72
2024/03/27 01:13:00;;;;;;;5.97;1.80;;;11.40;99.90;;;;;;6279484;22;20014;-72
2024/03/27 01:15:25;;;;;;;2.88;1.60;;;11.50;99.90;;;;;;6306953;22;19999;-71
2024/03/27 01:17:51;;;;;;;2.85;1.80;;;11.50;99.90;;;;;;6306893;22;20006;-71
2024/03/27 01:20:18;;;;;;;3.42;1.45;;;11.50;99.90;;;;;;6306506;22;20101;-71
2024/03/27 01:22:43;;;;;;;6.55;1.60;;;11.40;99.90;;;;;;6306798;22;20465;-72
2024/03/27 01:25:11;;;;;;;2.97;1.65;;;11.50;99.90;;;;;;6306771;22;20003;-70
2024/03/27 01:27:37;;;;;;;7.50;1.55;;;11.50;99.90;;;;;;6306560;22;20436;-70
2024/03/27 01:30:03;;;;;;;2.10;1.50;;;11.50;99.90;;;;;;6306519;22;20019;-71
2024/03/27 01:32:29;;;;;;;6.00;1.80;;;11.50;99.90;;;;;;6306152;22;19996;-70
2024/03/27 01:34:55;;;;;;;5.60;1.63;;;11.50;99.90;;;;;;6306332;22;20041;-70
2024/03/27 01:37:21;;;;;;;2.35;1.40;;;11.50;99.90;;;;;;6336644;22;20011;-69
2024/03/27 01:39:47;;;;;;;1.80;1.38;;;11.50;99.90;;;;;;6339162;22;20007;-70
2024/03/27 01:42:13;;;;;;;3.17;1.70;;;11.50;99.90;;;;;;6339525;22;20325;-70
2024/03/27 01:44:39;;;;;;;3.05;1.70;;;11.50;99.90;;;;;;6340506;22;19999;-70
2024/03/27 01:47:05;;;;;;;4.45;1.70;;;11.50;99.90;;;;;;6340385;22;20074;-71
2024/03/27 01:49:33;;;;;;;5.65;2.20;;;11.50;99.90;;;;;;6340541;22;20034;-70
2024/03/27 01:52:00;;;;;;;3.67;1.75;;;11.40;99.90;;;;;;6340345;22;20076;-70
2024/03/27 02:19:31;;;;;;;4.18;1.42;;;11.50;99.90;;;;;;6094810;23;20013;-70
2024/03/27 02:21:57;;;;;;;4.50;1.75;;;11.40;99.90;;;;;;6095209;23;20359;-71
2024/03/27 02:24:40;;;;;;;4.70;1.25;;;11.50;99.90;;;;;;6097282;23;20096;-73
2024/03/27 02:27:06;;;;;;;;;;;11.50;99.90;;;;;;6339997;22;20003;-71
2024/03/27 02:29:32;;;;;;;1.60;1.00;;;11.40;99.90;;;;;;6338583;22;20275;-71
2024/03/27 02:31:58;;;;;;;2.60;1.02;;;11.50;99.90;;;;;;6338912;22;19995;-70
2024/03/27 02:34:24;;;;;;;2.33;1.10;;;11.40;99.90;;;;;;6338939;22;20044;-71
2024/03/27 02:36:50;;;;;;;2.10;1.20;;;11.40;99.90;;;;;;6338884;22;20019;-71
2024/03/27 02:39:15;;;;;;;0.95;0.82;;;11.50;99.90;;;;;;6338967;22;20007;-70
2024/03/27 02:41:41;;;;;;;2.45;1.10;;;11.50;99.90;;;;;;6338870;22;19999;-69
2024/03/27 02:44:07;;;;;;;2.40;1.20;;;11.50;99.90;;;;;;6338890;22;20006;-71
2024/03/27 02:46:33;;;;;;;3.03;1.40;;;11.50;99.90;;;;;;6338892;22;20005;-70
2024/03/27 02:48:59;;;;;;;2.40;0.98;;;11.50;99.90;;;;;;6338540;22;20018;-70
2024/03/27 02:51:24;;;;;;;0.80;0.70;;;11.50;99.90;;;;;;6338847;22;19999;-71
2024/03/27 02:53:50;;;;;;;4.35;1.20;;;11.50;99.90;;;;;;6311452;22;20011;-73
2024/03/27 02:56:16;;;;;;;2.88;1.05;;;11.50;99.90;;;;;;6311819;22;20048;-71
2024/03/27 02:58:42;;;;;;;2.42;0.88;;;11.50;99.90;;;;;;6338927;22;20030;-71
2024/03/27 03:01:09;;;;;;;2.92;0.73;;;11.50;99.90;;;;;;6338873;22;20018;-71
2024/03/27 03:03:34;;;;;;;2.15;0.93;;;11.60;99.90;;;;;;6311564;22;20015;-70
2024/03/27 03:06:00;;;;;;;3.97;0.90;;;11.60;99.90;;;;;;6339196;22;20080;-70
2024/03/27 03:08:26;;;;;;;2.00;1.15;;;11.60;99.90;;;;;;6338864;22;20024;-71
2024/03/27 03:10:54;;;;;;;1.85;0.80;;;11.50;99.90;;;;;;6338810;22;20003;-70
2024/03/27 03:13:20;;;;;;;1.17;0.80;;;11.60;99.90;;;;;;6339129;22;19998;-70
2024/03/27 03:15:46;;;;;;;1.13;0.75;;;11.60;99.90;;;;;;6338843;22;20068;-70
2024/03/27 03:18:12;;;;;;;5.03;1.63;;;11.60;99.90;;;;;;6339030;22;20428;-70
2024/03/27 03:20:38;;;;;;;1.45;0.70;;;11.60;99.90;;;;;;6339211;22;20014;-70
2024/03/27 03:23:04;;;;;;;3.38;0.82;;;11.60;99.90;;;;;;6338588;22;20081;-70
2024/03/27 03:25:30;;;;;;;6.28;1.45;;;11.60;99.90;;;;;;6339556;22;20346;-69
2024/03/27 03:27:56;;;;;;;3.72;1.20;;;11.60;99.90;;;;;;6339636;22;20041;-70
2024/03/27 03:30:22;;;;;;;2.97;0.80;;;11.60;99.90;;;;;;6339091;22;20068;-70
2024/03/27 03:54:18;;;;;;;3.83;2.38;;;11.60;99.90;;;;;;5952935;24;20124;-70
2024/03/27 04:00:27;;;;;;;3.58;2.08;;;11.60;99.90;;;;;;5888668;24;20021;-70
2024/03/27 04:02:56;;;;;;;3.97;2.50;;;11.50;99.90;;;;;;6051550;23;20369;-70
2024/03/27 04:05:22;;;;;;;4.80;2.40;;;11.50;99.90;;;;;;6167885;22;20099;-70
2024/03/27 04:07:48;;;;;;;3.90;2.50;;;11.50;99.90;;;;;;6299017;22;20372;-70
2024/03/27 04:10:14;;;;;;;4.72;3.92;;;11.60;99.90;;;;;;6306868;22;20007;-71
2024/03/27 04:12:40;;;;;;;9.25;6.53;;;11.60;99.90;;;;;;6306979;22;20223;-70
2024/03/27 04:15:07;;;;;;;5.07;3.28;;;11.60;99.90;;;;;;6307238;22;20007;-70
2024/03/27 04:17:33;;;;;;;3.95;2.63;;;11.60;99.90;;;;;;6307271;22;19999;-70
2024/03/27 04:20:00;;;;;;;8.50;6.30;;;11.60;99.90;;;;;;6307110;22;20003;-71
2024/03/27 04:22:29;;;;;;;3.47;3.10;;;11.60;99.90;;;;;;6306753;22;20423;-70
2024/03/27 04:24:55;;;;;;;3.63;3.13;;;11.50;99.90;;;;;;6307079;22;20096;-70
2024/03/27 04:27:20;;;;;;;3.45;2.20;;;11.60;99.90;;;;;;6306997;22;20372;-70
2024/03/27 04:29:46;;;;;;;3.00;2.25;;;11.60;99.90;;;;;;6306957;22;20008;-70
2024/03/27 04:32:12;;;;;;;3.63;2.70;;;11.60;99.90;;;;;;6306897;22;20056;-70
2024/03/27 04:34:38;;;;;;;5.78;2.67;;;11.60;99.90;;;;;;6307037;22;20068;-70
2024/03/27 04:37:05;;;;;;;4.00;2.78;;;11.60;99.90;;;;;;6306761;22;19995;-71
2024/03/27 04:39:30;;;;;;;4.28;2.85;;;11.60;99.90;;;;;;6307420;22;20003;-70
2024/03/27 04:41:56;;;;;;;4.10;3.03;;;11.60;99.90;;;;;;6326432;22;20106;-70
2024/03/27 04:44:22;;;;;;;4.35;2.72;;;11.60;99.90;;;;;;6338176;22;20078;-70
2024/03/27 04:46:48;;;;;;;4.75;2.97;;;11.60;99.90;;;;;;6337965;22;19999;-70
2024/03/27 04:49:14;;;;;;;4.53;2.72;;;11.60;99.90;;;;;;6337774;22;20006;-69
2024/03/27 04:51:39;;;;;;;4.28;3.35;;;11.60;99.90;;;;;;6310227;22;20007;-70
2024/03/27 04:54:05;;;;;;;5.07;3.47;;;11.50;99.90;;;;;;6338063;22;20003;-69
2024/03/27 04:56:31;;;;;;;3.78;2.95;;;11.50;99.90;;;;;;6338276;22;19994;-70
2024/03/27 04:58:58;;;;;;;3.78;3.03;;;11.50;99.90;;;;;;6338030;22;20083;-69
2024/03/27 05:01:23;;;;;;;6.22;3.20;;;11.50;99.90;;;;;;6337976;22;20009;-72
2024/03/27 05:03:49;;;;;;;7.03;2.97;;;11.50;99.90;;;;;;6338863;22;20003;-73
2024/03/27 05:06:15;;;;;;;3.88;3.03;;;11.50;99.90;;;;;;6338909;22;20019;-71
2024/03/27 05:08:41;;;;;;;3.60;2.83;;;11.50;99.90;;;;;;6338627;22;20516;-77
2024/03/27 05:11:10;;;;;;;4.20;2.60;;;11.50;99.90;;;;;;6338601;22;20306;-72
2024/03/27 05:13:39;;;;;;;7.00;2.72;;;11.50;99.90;;;;;;6339799;22;20337;-72
2024/03/27 05:33:54;;;;;;;4.40;3.10;;;11.50;99.90;;;;;;6183744;23;20161;-72
2024/03/27 05:40:37;;;;;;;7.70;3.08;;;11.50;99.90;;;;;;6094623;23;20038;-71
2024/03/27 05:43:04;;;;;;;6.55;3.47;;;11.50;99.90;;;;;;6110164;23;20394;-70
2024/03/27 05:45:30;;;;;;;6.05;3.47;;;11.50;99.90;;;;;;6334316;22;20168;-71
2024/03/27 05:47:56;;;;;;;4.82;2.78;;;11.50;99.90;;;;;;6339395;22;20023;-70
2024/03/27 05:50:22;;;;;;;7.38;4.43;;;11.50;99.90;;;;;;6339762;22;20340;-78
2024/03/27 05:52:48;;;;;;;7.63;3.40;;;11.50;99.90;;;;;;6339398;22;20076;-78
2024/03/27 05:55:14;;;;;;;13.38;3.85;;;11.50;99.90;;;;;;6339666;22;20005;-69
2024/03/27 05:57:39;;;;;;;7.18;4.88;;;11.50;99.90;;;;;;6339396;22;20021;-69
2024/03/27 06:00:09;;;;;;;7.70;3.88;;;11.50;99.90;;;;;;6339312;22;19999;-70
2024/03/27 06:02:35;;;;;;;5.63;4.35;;;11.50;99.90;;;;;;6339097;22;20060;-70
2024/03/27 06:05:01;;;;;;;8.30;3.88;;;11.50;99.90;;;;;;6340058;22;20404;-71
2024/03/27 06:07:27;;;;;;;5.38;3.75;;;11.50;99.90;;;;;;6339512;22;19999;-70
2024/03/27 06:09:53;;;;;;;7.85;2.60;;;11.50;99.90;;;;;;6339259;22;20015;-70
2024/03/27 06:12:18;;;;;;;7.05;3.30;;;11.50;99.90;;;;;;6339631;22;20052;-70
2024/03/27 06:14:44;;;;;;;6.72;3.85;;;11.50;99.90;;;;;;6339543;22;19998;-74
2024/03/27 06:17:10;;;;;;;4.55;3.45;;;11.60;99.90;;;;;;6338977;22;20002;-73
2024/03/27 06:19:36;;;;;;;7.88;2.70;;;11.60;99.90;;;;;;6338709;22;20119;-72
2024/03/27 06:22:02;;;;;;;5.38;2.33;;;11.60;99.90;;;;;;6339178;22;19999;-78
2024/03/27 06:24:27;;;;;;;7.28;2.75;;;11.60;99.90;;;;;;6339034;22;20002;-74
2024/03/27 06:26:53;;;;;;;13.88;2.70;;;11.50;99.90;;;;;;6338969;22;20002;-71
2024/03/27 06:29:19;;;;;;;5.32;2.70;;;11.60;99.90;;;;;;6338674;22;20026;-70
2024/03/27 06:31:45;;;;;;;4.63;2.72;;;11.60;99.90;;;;;;6339603;22;19999;-77
2024/03/27 06:34:12;;;;;;;3.22;2.78;;;11.60;99.90;;;;;;6339211;22;20007;-73
2024/03/27 06:36:38;;;;;;;3.35;3.05;;;11.60;99.90;;;;;;6339142;22;20041;-71
2024/03/27 06:39:04;;;;;;;4.72;3.00;;;11.60;99.90;;;;;;6311504;22;20011;-79
2024/03/27 06:41:29;;;;;;;7.70;2.88;;;11.60;99.90;;;;;;6338818;22;20037;-71
2024/03/27 06:43:55;;;;;;;6.47;2.78;;;11.60;99.90;;;;;;6338785;22;20210;-77
2024/03/27 06:46:23;;;;;;;8.20;2.78;;;11.60;99.90;;;;;;6339538;22;20480;-76
2024/03/27 06:49:07;;;;;;;8.00;3.20;;;11.70;99.90;;;;;;6340064;22;20310;-72
2024/03/27 06:51:33;;;;;;;5.05;3.63;;;11.60;99.90;;;;;;6339419;22;20325;-71
2024/03/27 06:54:00;;;;;;;5.85;3.25;;;11.70;99.90;;;;;;6339328;22;20025;-72
2024/03/27 07:03:51;;;;;;;8.57;2.65;;;11.80;99.90;;;;;;6161178;23;20060;-71
2024/03/27 07:10:18;;;;;;;9.77;2.42;;;11.80;99.90;;;;;;6243658;23;20092;-70
2024/03/27 07:16:05;;;;;;;7.38;3.72;;;11.90;99.90;;;;;;6325075;22;20071;-73
2024/03/27 07:22:10;;;;;;;5.25;2.08;;;12.00;99.90;;;;;;6183453;23;20012;-82
2024/03/27 07:24:36;;;;;;;7.47;1.88;;;12.00;99.90;;;;;;6157429;23;20384;-80
2024/03/27 07:27:02;;;;;;;7.20;2.38;;;12.00;99.90;;;;;;6318253;22;20003;-79
2024/03/27 07:29:28;;;;;;;3.45;1.75;;;12.10;99.90;;;;;;6338340;22;20011;-78
2024/03/27 07:31:54;;;;;;;27.33;2.50;;;12.10;99.90;;;;;;6338390;22;20413;-79
2024/03/27 07:34:19;;;;;;;7.75;2.30;;;12.10;99.90;;;;;;6338620;22;20003;-78
2024/03/27 07:36:45;;;;;;;4.55;1.90;;;12.10;99.90;;;;;;6309667;22;20013;-79
2024/03/27 07:39:11;;;;;;;3.25;1.85;;;12.10;99.90;;;;;;6339232;22;20003;-78
2024/03/27 07:41:37;;;;;;;21.52;5.70;;;12.20;99.90;;;;;;6311114;22;20015;-79
2024/03/27 07:44:03;;;;;;;4.40;2.92;;;12.20;99.90;;;;;;6338543;22;20082;-77
2024/03/27 07:46:29;;;;;;;4.07;2.25;;;12.20;99.90;;;;;;6338636;22;20002;-75
2024/03/27 07:48:55;;;;;;;11.15;2.95;;;12.30;99.90;;;;;;6308849;22;20015;-76
2024/03/27 07:51:21;;;;;;;5.72;2.53;;;12.30;99.90;;;;;;6337404;22;20007;-77
2024/03/27 07:53:47;;;;;;;22.85;2.90;;;12.30;99.90;;;;;;6337988;22;20006;-77
2024/03/27 07:56:13;;;;;;;10.40;2.40;;;12.40;99.90;;;;;;6338873;22;20003;-77
2024/03/27 07:58:40;;;;;;;8.13;2.30;;;12.30;99.90;;;;;;6337424;22;19999;-72
2024/03/27 08:01:05;;;;;;;8.85;2.30;;;12.40;99.90;;;;;;6337906;22;20391;-72
2024/03/27 08:03:31;;;;;;;9.75;2.72;;;12.40;99.90;;;;;;6335304;22;20022;-72
2024/03/27 08:05:57;;;;;;;4.03;2.00;;;12.40;99.90;;;;;;6337638;22;20002;-72
2024/03/27 08:08:23;;;;;;;5.45;2.03;;;12.40;99.90;;;;;;6337617;22;20010;-72
2024/03/27 08:10:58;;;;;;;6.07;2.13;;;12.40;99.90;;;;;;6337630;22;20013;-71
2024/03/27 08:13:24;;;;;;;5.78;2.10;;;12.40;99.90;;;;;;6309449;22;20007;-73
2024/03/27 08:15:50;;;;;;;5.10;2.10;;;12.40;99.90;;;;;;6337324;22;20424;-73
2024/03/27 08:18:17;;;;;;;4.57;2.78;;;12.40;99.90;;;;;;6337226;22;20052;-76
2024/03/27 08:21:03;;;;;;;7.45;4.00;;;12.50;99.90;;;;;;6337146;22;20083;-71
2024/03/27 08:23:29;;;;;;;7.50;3.45;;;12.40;99.90;;;;;;6337288;22;20048;-71
2024/03/27 08:25:55;;;;;;;9.23;3.88;;;12.50;99.90;;;;;;6337315;22;20007;-78
2024/03/27 08:28:20;;;;;;;9.65;4.32;;;12.50;99.90;;;;;;6336907;22;19995;-77
2024/03/27 08:30:46;;;;;;;5.57;3.30;;;12.50;99.90;;;;;;6336543;22;20007;-78
2024/03/27 08:33:12;;;;;;;8.23;4.22;;;12.50;99.90;;;;;;6336057;22;19990;-75
2024/03/27 08:35:51;;;;;;;8.45;3.72;;;12.50;99.90;;;;;;6337058;22;20321;-78
2024/03/27 08:42:22;;;;;;;7.30;3.42;;;12.60;99.90;;;;;;6177447;23;20704;-76
2024/03/27 08:45:23;;;;;;;7.50;3.05;;;12.50;99.90;;;;;;6150543;23;20018;-76
2024/03/27 08:48:38;;;;;;;5.07;3.25;;;12.60;99.90;;;;;;6091512;23;20037;-74
2024/03/27 08:51:04;;;;;;;6.95;4.70;;;12.60;99.90;;;;;;6092715;23;20015;-73
2024/03/27 08:53:30;;;;;;;7.45;3.00;;;12.50;99.90;;;;;;6273926;22;20007;-74
2024/03/27 08:56:18;;;;;;;5.88;3.00;;;12.50;99.90;;;;;;6306619;22;19999;-74
2024/03/27 09:02:54;;;;;;;;;;;;;;;;;;;;;
2024/03/27 09:05:21;;;;;;;6.53;2.72;;;12.60;99.90;;;;;;6205629;22;20100;-74
2024/03/27 09:07:46;;;;;;;6.10;3.60;;;12.60;99.90;;;;;;6307247;22;20008;-74
2024/03/27 09:10:12;;;;;;;5.90;3.80;;;12.60;99.90;;;;;;6307147;22;20119;-72
2024/03/27 09:12:38;;;;;;;5.25;2.20;;;12.60;99.90;;;;;;6306944;22;19996;-73
2024/03/27 09:15:05;;;;;;;4.10;2.72;;;12.60;99.90;;;;;;6307210;22;20030;-73
2024/03/27 09:17:31;;;;;;;4.93;2.90;;;12.60;99.90;;;;;;6307246;22;20003;-74
2024/03/27 09:19:57;;;;;;;4.80;2.90;;;12.60;99.90;;;;;;6306794;22;20010;-74
2024/03/27 09:22:23;;;;;;;5.55;2.83;;;12.60;99.90;;;;;;6306980;22;20003;-73
2024/03/27 09:24:49;;;;;;;6.60;2.95;;;12.60;99.90;;;;;;6306702;22;20098;-72
2024/03/27 09:27:15;;;;;;;5.43;2.40;;;12.60;99.90;;;;;;6306943;22;20023;-73
2024/03/27 09:29:40;;;;;;;4.35;2.55;;;12.60;99.90;;;;;;6306700;22;20018;-73
2024/03/27 09:32:07;;;;;;;4.30;2.97;;;12.60;99.90;;;;;;6307077;22;20095;-72
2024/03/27 09:34:33;;;;;;;6.50;2.40;;;12.60;99.90;;;;;;6307308;22;20040;-72
2024/03/27 09:36:58;;;;;;;5.18;3.00;;;12.70;99.90;;;;;;6306704;22;20074;-73
2024/03/27 09:39:24;;;;;;;8.57;3.00;;;12.70;99.90;;;;;;6278952;22;19999;-73
2024/03/27 09:41:50;;;;;;;8.43;3.17;;;12.70;99.90;;;;;;6306675;22;20010;-72
2024/03/27 09:44:20;;;;;;;12.90;3.10;;;12.80;99.90;;;;;;6329705;22;20011;-72
2024/03/27 09:46:47;;;;;;;6.32;2.67;;;12.80;99.90;;;;;;6338136;22;19999;-72
2024/03/27 09:49:15;;;;;;;8.02;2.92;;;12.80;99.90;;;;;;6337384;22;20021;-73
2024/03/27 09:51:41;;;;;;;6.28;2.60;;;12.80;99.90;;;;;;6337830;22;20120;-73
2024/03/27 09:54:08;;;;;;;6.75;2.60;;;12.80;99.90;;;;;;6337865;22;20423;-73
2024/03/27 09:56:37;;;;;;;8.60;3.20;;;12.80;99.90;;;;;;6338187;22;20006;-73
2024/03/27 09:59:04;;;;;;;4.55;1.92;;;12.90;99.90;;;;;;6310859;22;20018;-72
2024/03/27 10:01:31;;;;;;;5.95;2.30;;;12.90;99.90;;;;;;6339768;22;20086;-70
2024/03/27 10:03:59;;;;;;;2.45;1.90;;;12.90;99.90;;;;;;6339546;22;20029;-69
2024/03/27 10:06:26;;;;;;;6.00;2.30;;;12.90;99.90;;;;;;6339543;22;20069;-69
2024/03/27 10:08:51;;;;;;;12.57;2.88;;;12.90;99.90;;;;;;6339351;22;20333;-69
2024/03/27 10:11:17;;;;;;;7.05;2.63;;;13.00;99.90;;;;;;6338153;22;19995;-70
2024/03/27 10:13:43;;;;;;;7.68;2.97;;;13.00;99.90;;;;;;6310656;22;20460;-70
2024/03/27 10:16:10;;;;;;;6.72;2.92;;;13.10;99.90;;;;;;6340328;22;20002;-69
2024/03/27 10:19:30;;;;;;;7.63;2.13;;;13.20;99.90;;;;;;6340429;22;20095;-69
2024/03/27 10:26:17;;;;;;;6.55;1.60;;;13.40;99.90;;;;;;6124001;23;20018;-70
2024/03/27 10:39:17;;;;;;;4.30;1.35;;;13.70;99.90;;;;;;5866863;24;20051;-70
2024/03/27 10:42:31;;;;;;;8.65;1.58;;;13.70;99.90;;;;;;5951024;24;20464;-70
2024/03/27 10:44:58;;;;;;;4.07;1.80;;;13.80;99.90;;;;;;5942647;23;20163;-69
2024/03/27 10:47:31;;;;;;;3.88;1.08;;;13.80;99.90;;;;;;6069802;23;20029;-74
2024/03/27 10:49:58;;;;;;;6.15;1.05;;;13.90;99.90;;;;;;6254159;22;20010;-71
2024/03/27 10:52:24;;;;;;;4.03;1.65;;;13.90;99.90;;;;;;6338808;22;20073;-70
2024/03/27 10:54:51;;;;;;;6.53;1.70;;;13.90;99.90;;;;;;6339356;22;20113;-70
2024/03/27 10:57:20;;;;;;;4.70;1.33;;;13.90;99.90;;;;;;6339255;22;20078;-69
2024/03/27 10:59:51;;;;;;;9.65;1.65;;;13.90;99.90;;;;;;6338867;22;20365;-69
2024/03/27 11:02:19;;;;;;;4.65;1.58;;;14.00;99.90;;;;;;6338096;22;19999;-69
2024/03/27 11:04:55;;;;;;;13.50;2.03;;;14.00;99.90;;;;;;6337434;22;19999;-69
2024/03/27 11:07:21;;;;;;;4.70;1.60;;;14.00;99.90;;;;;;6338464;22;20437;-70
2024/03/27 11:09:54;;;;;;;7.60;1.35;;;14.00;99.90;;;;;;6338064;22;20368;-70
2024/03/27 11:12:26;;;;;;;7.60;1.88;;;14.00;99.90;;;;;;6338841;22;19999;-69
2024/03/27 11:14:52;;;;;;;;;;;14.00;99.90;;;;;;6339588;22;20433;-69
2024/03/27 11:17:26;;;;;;;5.18;1.70;;;14.00;99.90;;;;;;6338291;22;19899;-69
2024/03/27 11:19:55;;;;;;;4.25;1.38;;;14.00;99.90;;;;;;6339139;22;19999;-69
2024/03/27 11:22:23;;;;;;;4.95;1.95;;;14.00;99.90;;;;;;6338961;22;20048;-69
2024/03/27 11:24:50;;;;;;;8.38;1.83;;;14.10;99.90;;;;;;6339533;22;20022;-69
2024/03/27 11:27:27;;;;;;;4.43;1.98;;;14.10;99.90;;;;;;6338577;22;20007;-69
2024/03/27 11:29:56;;;;;;;6.18;2.10;;;14.10;99.90;;;;;;6338659;22;20018;-69
2024/03/27 11:32:22;;;;;;;6.97;2.50;;;14.10;99.90;;;;;;6338884;22;20003;-70
2024/03/27 11:34:49;;;;;;;7.30;2.22;;;14.10;99.90;;;;;;6339385;22;20542;-68
2024/03/27 11:37:15;;;;;;;7.43;2.28;;;14.10;99.90;;;;;;6339467;22;20041;-73
2024/03/27 11:39:41;;;;;;;11.43;2.55;;;14.20;99.90;;;;;;6339187;22;19999;-69
2024/03/27 11:42:07;;;;;;;9.10;2.20;;;14.20;99.90;;;;;;6339436;22;20066;-69
2024/03/27 11:59:26;;;;;;;9.05;2.10;;;14.30;99.90;;;;;;5893283;24;20024;-69
2024/03/27 12:02:28;;;;;;;9.93;2.40;;;14.30;99.90;;;;;;5867941;24;20438;-70
2024/03/27 12:05:53;;;;;;;9.35;3.42;;;14.30;99.90;;;;;;5932042;23;20019;-69
2024/03/27 12:08:25;;;;;;;12.65;3.17;;;14.30;99.90;;;;;;5951990;24;20049;-69
2024/03/27 12:10:51;;;;;;;8.20;2.93;;;14.30;99.90;;;;;;6008217;23;20395;-69
2024/03/27 12:13:17;;;;;;;7.25;2.53;;;14.30;99.90;;;;;;6144106;23;20009;-69
2024/03/27 12:15:44;;;;;;;10.45;5.00;;;14.40;99.90;;;;;;6292440;22;20325;-69
2024/03/27 12:18:13;;;;;;;6.75;3.97;;;14.30;99.90;;;;;;6338021;22;20379;-73
2024/03/27 12:20:38;;;;;;;7.40;3.65;;;14.30;99.90;;;;;;6338867;22;20363;-73
2024/03/27 12:23:05;;;;;;;7.38;3.78;;;14.40;99.90;;;;;;6338514;22;19998;-69
2024/03/27 12:25:32;;;;;;;10.50;6.90;;;14.40;99.90;;;;;;6338391;22;20052;-69
2024/03/27 12:28:04;;;;;;;13.32;6.07;;;14.40;99.90;;;;;;6338262;22;20003;-69
2024/03/27 12:30:30;;;;;;;6.93;3.65;;;14.40;99.90;;;;;;6310336;22;20337;-69
2024/03/27 12:32:56;;;;;;;8.82;3.13;;;14.40;99.90;;;;;;6335738;22;20001;-69
2024/03/27 12:35:22;;;;;;;6.30;3.15;;;14.40;99.90;;;;;;6335097;22;20011;-69
2024/03/27 12:37:48;;;;;;;10.88;3.63;;;14.40;99.90;;;;;;6337057;22;19994;-69
2024/03/27 12:40:14;;;;;;;6.50;2.63;;;14.40;99.90;;;;;;6338503;22;19998;-69
2024/03/27 12:42:41;;;;;;;5.20;2.50;;;14.40;99.90;;;;;;6338751;22;20029;-69
2024/03/27 12:45:07;;;;;;;11.70;2.92;;;14.40;99.90;;;;;;6338564;22;20425;-69
2024/03/27 12:47:33;;;;;;;7.47;2.55;;;14.40;99.90;;;;;;6338640;22;20437;-69
2024/03/27 12:49:59;;;;;;;11.30;3.05;;;14.50;99.90;;;;;;6338069;22;20014;-69
2024/03/27 12:52:24;;;;;;;6.13;2.97;;;14.50;99.90;;;;;;6338351;22;20013;-69
2024/03/27 12:54:51;;;;;;;8.10;3.45;;;14.50;99.90;;;;;;6310855;22;20017;-69
2024/03/27 12:57:16;;;;;;;12.13;2.72;;;14.50;99.90;;;;;;6338575;22;20376;-69
2024/03/27 12:59:42;;;;;;;12.30;3.80;;;14.50;99.90;;;;;;6338034;22;19999;-71
2024/03/27 13:02:11;;;;;;;9.07;2.85;;;14.50;99.90;;;;;;6311035;22;20003;-70
2024/03/27 13:04:37;;;;;;;10.80;2.63;;;14.50;99.90;;;;;;6338100;22;20003;-69
2024/03/27 13:07:03;;;;;;;13.63;2.30;;;14.50;99.90;;;;;;6337576;22;20002;-70
2024/03/27 13:09:29;;;;;;;14.45;2.53;;;14.50;99.90;;;;;;6337619;22;20052;-70
2024/03/27 13:11:55;;;;;;;13.35;2.50;;;14.50;99.90;;;;;;6338976;22;20034;-70
2024/03/27 13:14:22;;;;;;;8.45;2.15;;;14.50;99.90;;;;;;6339162;22;19999;-70
2024/03/27 13:16:49;;;;;;;12.90;2.80;;;14.50;99.90;;;;;;6339163;22;20003;-70
2024/03/27 13:19:15;;;;;;;14.20;2.33;;;14.50;99.90;;;;;;6338841;22;20037;-69
2024/03/27 13:21:45;;;;;;;12.50;2.70;;;14.50;99.90;;;;;;6338665;22;20009;-69
2024/03/27 13:38:11;;;;;;;13.52;3.72;;;14.50;99.90;;;;;;6096204;23;20014;-70
2024/03/27 13:43:39;;;;;;;;;;;14.50;99.90;;;;;;6098242;23;20336;-70
2024/03/27 13:46:45;;;;;;;12.93;3.22;;;14.40;99.90;;;;;;6213793;23;19966;-70
2024/03/27 13:49:21;;;;;;;17.27;3.70;;;14.40;99.90;;;;;;6188432;23;20045;-70
2024/03/27 13:51:47;;;;;;;16.17;4.07;;;14.40;99.90;;;;;;6213728;23;20011;-69
2024/03/27 13:54:14;;;;;;;15.63;4.20;;;14.40;99.90;;;;;;6306066;22;20594;-70
2024/03/27 13:56:40;;;;;;;18.52;3.97;;;14.40;99.90;;;;;;6311934;22;20009;-70
2024/03/27 13:59:06;;;;;;;18.08;3.60;;;14.40;99.90;;;;;;6339942;22;20002;-70
2024/03/27 14:01:32;;;;;;;13.05;3.65;;;14.40;99.90;;;;;;6339761;22;19999;-69
2024/03/27 14:03:59;;;;;;;18.38;3.95;;;14.40;99.90;;;;;;6339353;22;20116;-71
2024/03/27 14:06:25;;;;;;;11.70;3.20;;;14.40;99.90;;;;;;6312170;22;20336;-69
2024/03/27 14:08:50;;;;;;;19.17;3.80;;;14.40;99.90;;;;;;6339176;22;20034;-69
2024/03/27 14:11:16;;;;;;;22.48;4.13;;;14.30;99.90;;;;;;6339704;22;20069;-70
2024/03/27 14:13:42;;;;;;;18.05;3.95;;;14.40;99.90;;;;;;6339880;22;20010;-68
2024/03/27 14:16:08;;;;;;;21.45;4.70;;;14.30;99.90;;;;;;6339847;22;20038;-67
2024/03/27 14:18:33;;;;;;;14.15;4.63;;;14.30;99.90;;;;;;6339383;22;20015;-67
2024/03/27 14:20:59;;;;;;;18.23;4.35;;;14.30;99.90;;;;;;6339387;22;20003;-67
2024/03/27 14:23:25;;;;;;;28.02;6.28;;;14.30;99.90;;;;;;6339734;22;19998;-68
2024/03/27 14:25:51;;;;;;;15.20;5.00;;;14.30;99.90;;;;;;6339406;22;20048;-68
2024/03/27 14:28:18;;;;;;;31.27;5.43;;;14.30;99.90;;;;;;6338945;22;20048;-68
2024/03/27 14:30:44;;;;;;;26.33;5.90;;;14.30;99.90;;;;;;6339421;22;20368;-67
2024/03/27 14:33:10;;;;;;;27.92;6.65;;;14.30;99.90;;;;;;6339341;22;20051;-67
2024/03/27 14:35:36;;;;;;;31.65;7.55;;;14.30;99.90;;;;;;6339228;22;20003;-67
2024/03/27 14:38:02;;;;;;;36.67;6.65;;;14.30;99.90;;;;;;6339363;22;20075;-67
2024/03/27 14:40:28;;;;;;;29.80;6.47;;;14.30;99.90;;;;;;6311818;22;20005;-68
2024/03/27 14:42:54;;;;;;;34.35;8.15;;;14.30;99.90;;;;;;6338902;22;20062;-68
2024/03/27 14:45:20;;;;;;;34.45;6.15;;;14.30;99.90;;;;;;6338820;22;20006;-68
2024/03/27 14:47:47;;;;;;;37.83;6.55;;;14.30;99.90;;;;;;6339171;22;20003;-69
2024/03/27 14:50:13;;;;;;;1445.82;108.95;;;14.40;99.90;;;;;;6339166;22;20007;-67
2024/03/27 14:52:39;;;;;;;1999.90;246.65;;;14.40;99.90;;;;;;6339550;22;20332;-67
2024/03/27 14:55:05;;;;;;;662.85;36.13;;;14.40;99.90;;;;;;6311882;22;20009;-69
2024/03/27 14:57:31;;;;;;;39.22;8.55;;;14.50;99.90;;;;;;6339815;22;20002;-68
2024/03/27 14:59:57;;;;;;;57.70;9.90;;;14.50;99.90;;;;;;6339728;22;20002;-67
2024/03/27 15:13:29;;;;;;;46.28;8.30;;;14.30;99.90;;;;;;6244464;23;20109;-68
2024/03/27 15:26:30;;;;;;;32.22;8.05;;;14.30;99.90;;;;;;6152695;23;20068;-70
2024/03/27 15:28:56;;;;;;;36.80;7.53;;;14.30;99.90;;;;;;6158696;23;20405;-69
2024/03/27 15:31:22;;;;;;;47.80;9.00;;;14.30;99.90;;;;;;6318045;22;20328;-68
2024/03/27 15:33:48;;;;;;;50.53;9.88;;;14.30;99.90;;;;;;6338833;22;19999;-68
2024/03/27 15:36:14;;;;;;;39.60;10.80;;;14.30;99.90;;;;;;6338742;22;20006;-68
2024/03/27 15:38:40;;;;;;;41.97;10.15;;;14.30;99.90;;;;;;6338644;22;20020;-69
2024/03/27 15:41:06;;;;;;;40.65;9.55;;;14.30;99.90;;;;;;6338542;22;20006;-68
2024/03/27 15:43:31;;;;;;;40.80;9.48;;;14.30;99.90;;;;;;6338422;22;20058;-76
2024/03/27 15:45:57;;;;;;;55.83;11.18;;;14.30;99.90;;;;;;6336460;22;20010;-72
2024/03/27 15:48:23;;;;;;;36.22;8.00;;;14.30;99.90;;;;;;6336925;22;20030;-71
2024/03/27 15:50:49;;;;;;;33.60;7.60;;;14.30;99.90;;;;;;6337812;22;20011;-75
2024/03/27 15:53:14;;;;;;;47.22;8.27;;;14.30;99.90;;;;;;6338539;22;20006;-75
2024/03/27 15:55:40;;;;;;;40.83;7.15;;;14.30;99.90;;;;;;6337665;22;20006;-71
2024/03/27 15:58:07;;;;;;;42.40;7.72;;;14.40;99.90;;;;;;6338384;22;19999;-75